Merry Christmas and Happy New Year!

 

Sretan Božić i Nova godina!

 

METAR

METAR LDZA 220200Z 23002KT 9999 MIFG NSC 13/12 Q1016 TEMPO 4000 MIFG BR =
METAR LDSP 220200Z AUTO 34005KT 9999 SCT069/// 19/16 Q1015 NOSIG=
METAR LDDU 220200Z 08009KT CAVOK 19/15 Q1016 NOSIG =
METAR LDZD 220200Z 12004KT CAVOK 17/16 Q1016 TEMPO 4000 TSRA FEW025CB SCT035 =
METAR LDPL 220200Z 02003KT CAVOK 18/16 Q1015 NOSIG=
METAR LDOS 220200Z 06004KT CAVOK 11/06 Q1016=
METAR LDRI 220200Z VRB02KT 9999 FEW050 19/17 Q1015=

TAF

TAF LDZA 212325Z 2200/2300 VRB02KT CAVOK
                 TX25/2214Z TN12/2205Z
          PROB40 2202/2207 3000 MIFG BR
    PROB30 TEMPO 2204/2206 0500 FG VV002
    PROB30 TEMPO 2216/2300 23015KT TSRA FEW035CB SCT040=
TAF LDSP 212325Z 2200/2300 08005KT 9999 SCT040
                 TX24/2209Z TN17/2222Z
    PROB40 TEMPO 2200/2300 4000 TSRA SCT015 FEW020CB BKN035
           BECMG 2207/2209 11012KT
    PROB30 TEMPO 2210/2300 BKN012=
TAF LDDU 212325Z 2200/2300 11006KT CAVOK
                 TX24/2211Z TN17/2222Z
    PROB40 TEMPO 2200/2300 TSRA BKN012 FEW030CB
           BECMG 2206/2208 13015KT
    PROB30 TEMPO 2210/2218 3000 TSRA BKN005 SCT020CB=
TAF LDZD 212325Z 2200/2300 13006KT 9999 SCT035
                 TX24/2209Z TN15/2222Z
    PROB40 TEMPO 2201/2300 4000 TSRA BKN010 SCT020CB BKN030
           TEMPO 2207/2222 15015KT=
TAF LDPL 212325Z 2200/2300 10006KT 9999 SCT040
                 TX22/2214Z TN16/2201Z
    PROB40 TEMPO 2200/2300 TSRA SCT010 FEW020CB BKN030
           TEMPO 2208/2218 12012KT
    PROB30 TEMPO 2208/2300 BKN008=
TAF LDOS 212325Z 2200/2300 10006KT CAVOK
                 TX28/2213Z TN10/2204Z=
TAF LDRI 212325Z 2200/2300 VRB02KT 9999 SCT050
                 TX24/2212Z TN18/2205Z
    PROB40 TEMPO 2203/2300 TSRA FEW035CB BKN040
           BECMG 2218/2220 13010KT
    PROB30 TEMPO 2218/2300 BKN010=

SIGMET

LDZO SIGMET T01 VALID 220100/220230 LDZA-
LDZO ZAGREB FIR EMBD TS FCST WI N4415 E01448 - N4416 E01610 - N4227
E01830 - N4138 E01823 - N4344 E01438 - N4415 E01448 TOP FL360 STNR
NC=

AIRMET

Remark

Ukoliko se brzina i smjer vjetra ne mogu odrediti zbog privremenog kvara sustava/indikatora,
informacija o vjetru u METAR izvješću bit će prikazana kao "/////KT".

 

Disclaimer

 

In case of temporary system/sensor failure, wind speed and direction data will be represented as "/////KT" in METAR report.

 

If you cannot log in with your user account, please contact stjepko.jancijev@crocontrol.hr.
Specifically, the website deactivates user accounts that have not been used for more than 365 days, so they must be reactivated.
 

         

      Politika MET podataka      

 

Ukoliko se svojim korisničkim računom ne možete logirati na web stranicu, molim vas da se obratite na stjepko.jancijev@crocontrol.hr.

Naime, web stranica deaktivira korisničke račune koji nisu korišteni više od 365 dana te ih je potrebno ponovno aktivirati.